Time;durP1;ratioP1;P1;durP2;ratioP2;P2;SDS_P1;SDS_P2;PMS_P1;PMS_P2;Temp;Humidity;BMP_temperature;BMP_pressure;BME280_temperature;BME280_humidity;BME280_pressure;Samples;Min_cycle;Max_cycle;Signal;HPM_P1;HPM_P2
2023/12/25 00:01:06;;;;;;;7.03;1.85;;;12.90;99.90;;;;;;5060765;28;20047;-81
2023/12/25 00:03:31;;;;;;;9.57;1.75;;;12.80;99.90;;;;;;5063617;28;20037;-81
2023/12/25 00:05:57;;;;;;;7.68;2.00;;;12.80;99.90;;;;;;5062386;28;20484;-81
2023/12/25 00:08:23;;;;;;;6.43;1.83;;;12.90;99.90;;;;;;5060290;28;20040;-81
2023/12/25 00:10:49;;;;;;;5.85;1.88;;;12.90;99.90;;;;;;5058044;28;20463;-81
2023/12/25 00:13:15;;;;;;;6.10;1.70;;;12.90;99.90;;;;;;5062053;28;20036;-81
2023/12/25 00:15:40;;;;;;;4.65;1.52;;;12.90;99.90;;;;;;5061753;28;20199;-81
2023/12/25 00:18:06;;;;;;;7.85;2.00;;;12.90;99.90;;;;;;5054249;28;20407;-81
2023/12/25 00:20:32;;;;;;;6.13;2.13;;;12.90;99.90;;;;;;5057283;28;20082;-81
2023/12/25 00:22:57;;;;;;;13.88;2.13;;;12.90;99.90;;;;;;5057049;28;20500;-81
2023/12/25 00:25:23;;;;;;;10.02;2.38;;;12.90;99.90;;;;;;5063073;28;21205;-81
2023/12/25 00:27:48;;;;;;;11.10;2.10;;;12.90;99.90;;;;;;5061476;28;20104;-81
2023/12/25 00:30:15;;;;;;;9.05;2.55;;;12.90;99.90;;;;;;5062411;28;20463;-81
2023/12/25 00:32:40;;;;;;;8.70;2.88;;;13.00;99.90;;;;;;5059942;28;20103;-81
2023/12/25 00:35:06;;;;;;;6.85;1.77;;;13.00;99.90;;;;;;5062800;28;20113;-81
2023/12/25 00:37:32;;;;;;;6.25;2.85;;;12.90;99.90;;;;;;5056541;28;20058;-81
2023/12/25 00:39:57;;;;;;;12.52;2.85;;;12.80;99.90;;;;;;5054760;28;20053;-81
2023/12/25 00:42:23;;;;;;;11.20;2.53;;;12.80;99.90;;;;;;5056841;28;20119;-80
2023/12/25 00:44:49;;;;;;;8.75;2.95;;;12.80;99.90;;;;;;5058928;28;20050;-81
2023/12/25 00:47:14;;;;;;;7.68;3.60;;;12.70;99.90;;;;;;5058688;28;20016;-80
2023/12/25 00:49:40;;;;;;;13.20;3.75;;;12.70;99.90;;;;;;5057632;28;20445;-80
2023/12/25 00:52:05;;;;;;;13.25;3.42;;;12.70;99.90;;;;;;5058621;28;20032;-80
2023/12/25 00:54:31;;;;;;;9.95;3.28;;;12.70;99.90;;;;;;5057839;28;20041;-80
2023/12/25 00:56:58;;;;;;;11.45;3.15;;;12.60;99.90;;;;;;5055983;28;20036;-82
2023/12/25 00:59:24;;;;;;;5.95;3.03;;;12.60;99.90;;;;;;5058807;28;20052;-82
2023/12/25 01:01:49;;;;;;;8.23;3.10;;;12.60;99.90;;;;;;5061163;28;20059;-82
2023/12/25 01:04:15;;;;;;;7.47;2.95;;;12.60;99.90;;;;;;5063992;28;20040;-82
2023/12/25 01:06:41;;;;;;;11.82;2.92;;;12.60;99.90;;;;;;5062160;28;20028;-82
2023/12/25 01:09:07;;;;;;;7.68;2.70;;;12.60;99.90;;;;;;5062394;28;20062;-81
2023/12/25 01:11:38;;;;;;;8.52;2.17;;;12.50;99.90;;;;;;5057569;28;20032;-81
2023/12/25 01:14:04;;;;;;;6.45;2.38;;;12.60;99.90;;;;;;5062932;28;20016;-81
2023/12/25 01:16:30;;;;;;;10.70;2.45;;;12.60;99.90;;;;;;5062103;28;20028;-81
2023/12/25 01:18:55;;;;;;;9.38;2.72;;;12.60;99.90;;;;;;5062283;28;20400;-81
2023/12/25 01:21:21;;;;;;;5.22;2.50;;;12.50;99.90;;;;;;5057931;28;20800;-81
2023/12/25 01:23:47;;;;;;;5.50;2.28;;;12.50;99.90;;;;;;5061160;28;20037;-81
2023/12/25 01:26:12;;;;;;;7.63;2.47;;;12.60;99.90;;;;;;5066537;28;20254;-81
2023/12/25 01:28:38;;;;;;;8.02;3.17;;;12.60;99.90;;;;;;5066869;28;20017;-81
2023/12/25 01:31:05;;;;;;;9.15;2.67;;;12.50;99.90;;;;;;5066404;28;21480;-81
2023/12/25 01:33:31;;;;;;;7.03;2.50;;;12.50;99.90;;;;;;5067147;28;20721;-81
2023/12/25 01:35:56;;;;;;;8.68;2.50;;;12.50;99.90;;;;;;5064926;28;20079;-81
2023/12/25 01:38:22;;;;;;;9.30;2.50;;;12.50;99.90;;;;;;5066607;28;20082;-81
2023/12/25 01:40:48;;;;;;;6.20;2.60;;;12.60;99.90;;;;;;5062396;28;20048;-81
2023/12/25 01:43:13;;;;;;;10.85;3.13;;;12.60;99.90;;;;;;5058303;28;20029;-81
2023/12/25 01:45:39;;;;;;;13.77;2.97;;;12.50;99.90;;;;;;5056293;28;20078;-81
2023/12/25 01:48:06;;;;;;;9.55;2.65;;;12.50;99.90;;;;;;5060476;28;20025;-81
2023/12/25 01:50:32;;;;;;;6.07;2.45;;;12.50;99.90;;;;;;5052602;28;20017;-80
2023/12/25 01:52:57;;;;;;;8.65;2.10;;;12.50;99.90;;;;;;5060594;28;20047;-81
2023/12/25 01:55:23;;;;;;;11.77;2.70;;;12.60;99.90;;;;;;5056928;28;20473;-81
2023/12/25 01:57:49;;;;;;;9.40;2.70;;;12.60;99.90;;;;;;5057469;28;20040;-81
2023/12/25 02:00:15;;;;;;;6.63;1.98;;;12.60;99.90;;;;;;5060945;28;20044;-81
2023/12/25 02:02:40;;;;;;;9.73;2.10;;;12.70;99.90;;;;;;5060545;28;20105;-80
2023/12/25 02:05:08;;;;;;;9.07;2.20;;;12.70;99.90;;;;;;5060861;28;20429;-81
2023/12/25 02:07:36;;;;;;;5.18;1.92;;;12.70;99.90;;;;;;5062779;28;20476;-81
2023/12/25 02:10:02;;;;;;;6.45;2.00;;;12.80;99.90;;;;;;5064328;28;20515;-81
2023/12/25 02:12:28;;;;;;;9.80;2.05;;;12.80;99.90;;;;;;5055938;28;20119;-81
2023/12/25 02:14:54;;;;;;;8.73;2.58;;;12.80;99.90;;;;;;5062875;28;20063;-81
2023/12/25 02:17:20;;;;;;;7.20;1.88;;;12.80;99.90;;;;;;5066641;28;20036;-81
2023/12/25 02:19:45;;;;;;;5.85;2.20;;;12.70;99.90;;;;;;5067543;28;20051;-81
2023/12/25 02:22:12;;;;;;;9.40;2.30;;;12.70;99.90;;;;;;5064559;28;20047;-81
2023/12/25 02:24:43;;;;;;;9.70;2.42;;;12.70;99.90;;;;;;5060956;28;20530;-81
2023/12/25 02:27:08;;;;;;;8.02;2.03;;;12.70;99.90;;;;;;5061394;28;20032;-81
2023/12/25 02:29:34;;;;;;;9.02;2.17;;;12.50;99.90;;;;;;5064797;28;20342;-81
2023/12/25 02:32:00;;;;;;;8.85;3.13;;;12.50;99.90;;;;;;5063436;28;20025;-80
2023/12/25 02:34:25;;;;;;;6.97;2.30;;;12.40;99.90;;;;;;5065735;28;20032;-80
2023/12/25 02:36:51;;;;;;;6.18;2.92;;;12.40;99.90;;;;;;5064660;28;20028;-80
2023/12/25 02:39:17;;;;;;;8.52;2.53;;;12.40;99.90;;;;;;5061379;28;20480;-80
2023/12/25 02:41:43;;;;;;;6.13;2.60;;;12.30;99.90;;;;;;5056907;28;20055;-81
2023/12/25 02:44:08;;;;;;;6.88;2.40;;;12.40;99.90;;;;;;5059704;28;20028;-81
2023/12/25 02:46:34;;;;;;;6.00;2.13;;;12.40;99.90;;;;;;5063932;28;20029;-81
2023/12/25 02:49:00;;;;;;;6.50;2.70;;;12.30;99.90;;;;;;5063773;28;20036;-81
2023/12/25 02:51:25;;;;;;;9.07;2.72;;;12.30;99.90;;;;;;5064383;28;20029;-81
2023/12/25 02:53:51;;;;;;;10.95;3.45;;;12.30;99.90;;;;;;5057144;28;20040;-81
2023/12/25 02:56:16;;;;;;;10.43;2.83;;;12.30;99.90;;;;;;5059476;28;20040;-81
2023/12/25 02:58:42;;;;;;;10.25;2.90;;;12.30;99.90;;;;;;5062662;28;20043;-81
2023/12/25 03:01:08;;;;;;;6.35;2.45;;;12.30;99.90;;;;;;5059389;28;20028;-81
2023/12/25 03:03:59;;;;;;;8.60;2.83;;;12.30;99.90;;;;;;5063122;28;20028;-81
2023/12/25 03:06:24;;;;;;;8.80;2.88;;;12.30;99.90;;;;;;5064502;28;20028;-81
2023/12/25 03:08:50;;;;;;;8.10;2.55;;;12.20;99.90;;;;;;5063199;28;20384;-81
2023/12/25 03:11:15;;;;;;;7.95;2.55;;;12.30;99.90;;;;;;5063580;28;20086;-81
2023/12/25 03:13:41;;;;;;;9.25;2.47;;;12.30;99.90;;;;;;5065044;28;20036;-81
2023/12/25 03:16:08;;;;;;;9.35;2.50;;;12.20;99.90;;;;;;5064747;28;20056;-81
2023/12/25 03:18:34;;;;;;;15.15;3.28;;;12.20;99.90;;;;;;5064196;28;20045;-81
2023/12/25 03:21:00;;;;;;;9.93;2.70;;;12.20;99.90;;;;;;5062508;28;20021;-81
2023/12/25 03:23:25;;;;;;;9.32;2.90;;;12.20;99.90;;;;;;5064379;28;20123;-81
2023/12/25 03:25:51;;;;;;;7.60;2.63;;;12.20;99.90;;;;;;5062628;28;20078;-81
2023/12/25 03:28:17;;;;;;;4.13;1.95;;;12.20;99.90;;;;;;5063574;28;20222;-81
2023/12/25 03:30:42;;;;;;;5.45;1.80;;;12.20;99.90;;;;;;5063419;28;20067;-81
2023/12/25 03:33:08;;;;;;;4.15;1.67;;;12.20;99.90;;;;;;5060634;28;21086;-81
2023/12/25 03:35:34;;;;;;;5.20;2.08;;;12.30;99.90;;;;;;5064606;28;20054;-81
2023/12/25 03:38:00;;;;;;;5.25;2.25;;;12.10;99.90;;;;;;5063933;28;20111;-81
2023/12/25 03:40:25;;;;;;;5.15;2.22;;;12.10;99.90;;;;;;5063391;28;20547;-81
2023/12/25 03:42:53;;;;;;;3.92;1.98;;;12.10;99.90;;;;;;5059818;28;20436;-81
2023/12/25 03:45:18;;;;;;;7.80;1.90;;;12.10;99.90;;;;;;5063466;28;20051;-81
2023/12/25 03:47:44;;;;;;;5.55;2.17;;;12.10;99.90;;;;;;5057463;28;20412;-81
2023/12/25 03:50:10;;;;;;;3.60;2.22;;;12.10;99.90;;;;;;5059072;28;20112;-81
2023/12/25 03:52:35;;;;;;;3.25;1.52;;;12.10;99.90;;;;;;5054457;28;20488;-82
2023/12/25 03:55:01;;;;;;;6.63;2.17;;;12.10;99.90;;;;;;5064880;28;20029;-82
2023/12/25 03:57:26;;;;;;;4.97;2.13;;;12.10;99.90;;;;;;5063760;28;20047;-81
2023/12/25 03:59:52;;;;;;;5.43;1.98;;;12.10;99.90;;;;;;5065703;28;20165;-81
2023/12/25 04:02:18;;;;;;;5.13;2.10;;;12.10;99.90;;;;;;5063247;28;20037;-81
2023/12/25 04:04:43;;;;;;;5.28;2.00;;;12.10;99.90;;;;;;5062644;28;20059;-81
2023/12/25 04:07:09;;;;;;;4.15;1.85;;;12.00;99.90;;;;;;5064713;28;20449;-81
2023/12/25 04:09:34;;;;;;;4.47;2.20;;;12.10;99.90;;;;;;5062128;28;20034;-81
2023/12/25 04:12:00;;;;;;;7.55;2.08;;;12.00;99.90;;;;;;5060768;28;20029;-82
2023/12/25 04:14:26;;;;;;;5.88;2.55;;;12.10;99.90;;;;;;5057953;28;20033;-81
2023/12/25 04:16:51;;;;;;;5.82;2.50;;;12.10;99.90;;;;;;5066224;28;20140;-82
2023/12/25 04:19:17;;;;;;;8.18;2.08;;;12.00;99.90;;;;;;5064583;28;20056;-81
2023/12/25 04:21:42;;;;;;;6.05;2.40;;;12.10;99.90;;;;;;5058634;28;20048;-83
2023/12/25 04:24:08;;;;;;;7.00;2.63;;;12.00;99.90;;;;;;5057143;28;20021;-81
2023/12/25 04:26:34;;;;;;;5.28;2.53;;;12.00;99.90;;;;;;5063219;28;20078;-83
2023/12/25 04:28:59;;;;;;;6.40;2.53;;;12.00;99.90;;;;;;5063366;28;20129;-83
2023/12/25 04:31:25;;;;;;;6.15;3.10;;;12.10;99.90;;;;;;5061526;28;20028;-83
2023/12/25 04:33:50;;;;;;;5.32;2.55;;;12.00;99.90;;;;;;5061807;28;20042;-83
2023/12/25 04:36:16;;;;;;;6.78;3.10;;;12.00;99.90;;;;;;5062102;28;20398;-83
2023/12/25 04:38:42;;;;;;;8.60;2.70;;;12.00;99.90;;;;;;5064217;28;20020;-82
2023/12/25 04:41:07;;;;;;;5.88;2.25;;;12.00;99.90;;;;;;5064590;28;21573;-83
2023/12/25 04:43:33;;;;;;;6.80;2.40;;;12.00;99.90;;;;;;5062079;28;20032;-82
2023/12/25 04:45:59;;;;;;;4.95;2.40;;;12.00;99.90;;;;;;5065557;28;20039;-82
2023/12/25 04:48:24;;;;;;;4.93;2.42;;;12.00;99.90;;;;;;5065017;28;20426;-82
2023/12/25 04:50:50;;;;;;;5.38;2.63;;;12.00;99.90;;;;;;5064747;28;20040;-82
2023/12/25 04:53:16;;;;;;;6.47;2.45;;;12.00;99.90;;;;;;5063377;28;20079;-82
2023/12/25 04:55:41;;;;;;;5.70;2.45;;;12.00;99.90;;;;;;5066872;28;20035;-82
2023/12/25 04:58:07;;;;;;;7.35;2.50;;;12.00;99.90;;;;;;5060741;28;20052;-82
2023/12/25 05:00:33;;;;;;;5.10;2.50;;;12.00;99.90;;;;;;5063265;28;20025;-82
2023/12/25 05:02:59;;;;;;;6.88;2.20;;;12.00;99.90;;;;;;5062406;28;20371;-83
2023/12/25 05:05:25;;;;;;;7.07;2.60;;;12.00;99.90;;;;;;5060515;28;20249;-83
2023/12/25 05:07:52;;;;;;;8.02;2.42;;;12.00;99.90;;;;;;5058649;28;20487;-82
2023/12/25 05:10:18;;;;;;;9.20;2.60;;;12.00;99.90;;;;;;5065933;28;20510;-83
2023/12/25 05:12:44;;;;;;;3.90;2.30;;;12.00;99.90;;;;;;5059646;28;20029;-83
2023/12/25 05:15:10;;;;;;;4.80;2.50;;;12.10;99.90;;;;;;5063323;28;20040;-83
2023/12/25 05:17:35;;;;;;;8.48;2.40;;;12.00;99.90;;;;;;5064105;28;20024;-82
2023/12/25 05:20:01;;;;;;;6.65;2.10;;;12.00;99.90;;;;;;5063123;28;20491;-82
2023/12/25 05:22:26;;;;;;;7.65;2.60;;;12.10;99.90;;;;;;5061731;28;20044;-82
2023/12/25 05:24:52;;;;;;;5.03;2.58;;;12.10;99.90;;;;;;5062121;28;20036;-83
2023/12/25 05:27:18;;;;;;;7.13;2.72;;;12.00;99.90;;;;;;5058049;28;20040;-81
2023/12/25 05:29:43;;;;;;;8.50;2.50;;;12.10;99.90;;;;;;5061968;28;20020;-81
2023/12/25 05:32:09;;;;;;;8.35;2.35;;;12.10;99.90;;;;;;5063193;28;20041;-81
2023/12/25 05:34:35;;;;;;;6.72;2.15;;;12.10;99.90;;;;;;5060466;28;20060;-82
2023/12/25 05:37:00;;;;;;;9.30;2.40;;;12.10;99.90;;;;;;5064813;28;20032;-82
2023/12/25 05:39:26;;;;;;;7.72;2.22;;;12.10;99.90;;;;;;5057600;28;20353;-82
2023/12/25 05:41:51;;;;;;;6.47;2.15;;;12.10;99.90;;;;;;5053243;28;20037;-82
2023/12/25 05:44:17;;;;;;;5.75;2.50;;;12.10;99.90;;;;;;5056691;28;20028;-82
2023/12/25 05:46:43;;;;;;;9.02;2.70;;;12.10;99.90;;;;;;5059176;28;20020;-82
2023/12/25 05:49:08;;;;;;;8.85;2.30;;;12.10;99.90;;;;;;5062143;28;20093;-82
2023/12/25 05:51:34;;;;;;;7.15;2.05;;;12.20;99.90;;;;;;5057692;28;20028;-82
2023/12/25 05:54:00;;;;;;;9.27;2.63;;;12.10;99.90;;;;;;5057747;28;20817;-83
2023/12/25 05:56:26;;;;;;;7.15;2.70;;;12.10;99.90;;;;;;5057371;28;20032;-82
2023/12/25 05:58:51;;;;;;;6.47;2.28;;;12.10;99.90;;;;;;5065897;28;20058;-82
2023/12/25 06:01:17;;;;;;;7.70;2.50;;;12.20;99.90;;;;;;5040752;28;20033;-82
2023/12/25 06:03:43;;;;;;;8.05;2.53;;;12.10;99.90;;;;;;5061634;28;20433;-82
2023/12/25 06:06:08;;;;;;;10.45;2.60;;;12.10;99.90;;;;;;5061451;28;20509;-82
2023/12/25 06:08:34;;;;;;;8.32;2.45;;;12.20;99.90;;;;;;5061654;28;20029;-82
2023/12/25 06:11:01;;;;;;;8.23;2.90;;;12.20;99.90;;;;;;5066952;28;20041;-82
2023/12/25 06:13:27;;;;;;;9.05;2.75;;;12.20;99.90;;;;;;5064875;28;20123;-83
2023/12/25 06:15:54;;;;;;;9.45;2.70;;;12.20;99.90;;;;;;5065843;28;20035;-82
2023/12/25 06:18:19;;;;;;;4.60;2.08;;;12.20;99.90;;;;;;5061997;28;20037;-82
2023/12/25 06:20:46;;;;;;;11.63;2.75;;;12.20;99.90;;;;;;5065538;28;20395;-83
2023/12/25 06:23:11;;;;;;;6.35;2.53;;;12.20;99.90;;;;;;5068157;28;20586;-82
2023/12/25 06:25:37;;;;;;;9.80;2.92;;;12.20;99.90;;;;;;5066517;28;20119;-83
2023/12/25 06:28:03;;;;;;;7.95;2.63;;;12.20;99.90;;;;;;5067940;28;20491;-82
2023/12/25 06:30:29;;;;;;;5.28;2.30;;;12.20;99.90;;;;;;5063737;28;20032;-82
2023/12/25 06:32:55;;;;;;;10.27;2.50;;;12.20;99.90;;;;;;5064171;28;20396;-82
2023/12/25 06:35:21;;;;;;;14.07;2.90;;;12.20;99.90;;;;;;5061968;28;20139;-82
2023/12/25 06:37:47;;;;;;;9.10;2.83;;;12.20;99.90;;;;;;5067061;28;20579;-82
2023/12/25 06:40:13;;;;;;;6.97;2.47;;;12.20;99.90;;;;;;5063628;28;20139;-83
2023/12/25 06:42:38;;;;;;;11.27;3.50;;;12.20;99.90;;;;;;5062851;28;20052;-83
2023/12/25 06:45:05;;;;;;;8.18;3.15;;;12.20;99.90;;;;;;5065842;28;20098;-83
2023/12/25 06:47:31;;;;;;;9.43;2.80;;;12.20;99.90;;;;;;5066455;28;20052;-83
2023/12/25 06:49:57;;;;;;;9.55;3.15;;;12.20;99.90;;;;;;5064802;28;20071;-82
2023/12/25 06:52:22;;;;;;;10.10;3.25;;;12.20;99.90;;;;;;5062983;28;20037;-83
2023/12/25 06:54:48;;;;;;;10.57;2.97;;;12.20;99.90;;;;;;5067341;28;20032;-82
2023/12/25 06:57:14;;;;;;;12.68;3.63;;;12.20;99.90;;;;;;5067134;28;20052;-82
2023/12/25 06:59:40;;;;;;;7.45;3.35;;;12.20;99.90;;;;;;5065795;28;20037;-83
2023/12/25 07:02:07;;;;;;;11.40;3.10;;;12.20;99.90;;;;;;5064305;28;20025;-82
2023/12/25 07:04:34;;;;;;;7.53;2.75;;;12.20;99.90;;;;;;5071719;28;20645;-82
2023/12/25 07:06:59;;;;;;;8.80;3.00;;;12.20;99.90;;;;;;5069988;28;20032;-82
2023/12/25 07:09:25;;;;;;;11.48;3.22;;;12.20;99.90;;;;;;5065501;28;20020;-83
2023/12/25 07:11:51;;;;;;;15.63;3.90;;;12.30;99.90;;;;;;5062123;28;20495;-82
2023/12/25 07:14:17;;;;;;;11.15;3.10;;;12.20;99.90;;;;;;5066841;28;20168;-82
2023/12/25 07:16:43;;;;;;;10.63;3.38;;;12.20;99.90;;;;;;5066031;28;20175;-82
2023/12/25 07:19:08;;;;;;;11.55;3.55;;;12.20;99.90;;;;;;5061404;28;20028;-82
2023/12/25 07:21:34;;;;;;;10.30;3.20;;;12.30;99.90;;;;;;5057781;28;20105;-82
2023/12/25 07:23:59;;;;;;;6.82;2.80;;;12.30;99.90;;;;;;5060206;28;20784;-82
2023/12/25 07:26:25;;;;;;;9.70;2.83;;;12.30;99.90;;;;;;5065937;28;20067;-82
2023/12/25 07:28:51;;;;;;;19.10;3.83;;;12.30;99.90;;;;;;5063327;28;20028;-82
2023/12/25 07:31:17;;;;;;;9.48;2.63;;;12.30;99.90;;;;;;5061719;28;20036;-82
2023/12/25 07:33:42;;;;;;;10.82;2.60;;;12.30;99.90;;;;;;5061015;28;20436;-82
2023/12/25 07:36:09;;;;;;;12.38;3.30;;;12.30;99.90;;;;;;5066946;28;20032;-82
2023/12/25 07:38:34;;;;;;;10.13;2.78;;;12.30;99.90;;;;;;5069153;28;20555;-81
2023/12/25 07:41:01;;;;;;;11.70;2.78;;;12.40;99.90;;;;;;5067262;28;20056;-82
2023/12/25 07:43:27;;;;;;;8.40;3.15;;;12.40;99.90;;;;;;5063549;28;21051;-82
2023/12/25 07:45:53;;;;;;;11.23;4.55;;;12.40;99.90;;;;;;5064624;28;20040;-82
2023/12/25 07:48:19;;;;;;;9.88;3.33;;;12.30;99.90;;;;;;5064316;28;20028;-82
2023/12/25 07:50:45;;;;;;;7.65;2.60;;;12.40;99.90;;;;;;5063149;28;20024;-82
2023/12/25 07:53:10;;;;;;;9.75;3.13;;;12.40;99.90;;;;;;5065353;28;20443;-81
2023/12/25 07:55:38;;;;;;;13.88;4.00;;;12.40;99.90;;;;;;5068881;28;20571;-82
2023/12/25 07:58:04;;;;;;;9.30;3.22;;;12.40;99.90;;;;;;5067099;28;20036;-82
2023/12/25 08:00:30;;;;;;;6.85;3.05;;;12.40;99.90;;;;;;5055793;28;20035;-82
2023/12/25 08:02:55;;;;;;;9.20;3.80;;;12.40;99.90;;;;;;5063749;28;20488;-82
2023/12/25 08:05:21;;;;;;;6.22;2.17;;;12.40;99.90;;;;;;5063869;28;20473;-82
2023/12/25 08:07:47;;;;;;;11.15;3.28;;;12.40;99.90;;;;;;5063045;28;20095;-82
2023/12/25 08:10:13;;;;;;;7.57;2.72;;;12.30;99.90;;;;;;5058991;28;20539;-81
2023/12/25 08:12:43;;;;;;;8.82;3.33;;;12.40;99.90;;;;;;5066607;28;20404;-82
2023/12/25 08:15:11;;;;;;;9.00;2.95;;;12.30;99.90;;;;;;5062862;28;20503;-82
2023/12/25 08:17:37;;;;;;;14.60;3.97;;;12.40;99.90;;;;;;5068379;28;20356;-82
2023/12/25 08:20:03;;;;;;;9.45;2.97;;;12.40;99.90;;;;;;5065127;28;20082;-82
2023/12/25 08:22:29;;;;;;;8.27;2.97;;;12.40;99.90;;;;;;5063247;28;20033;-82
2023/12/25 08:24:54;;;;;;;10.48;3.15;;;12.50;99.90;;;;;;5063772;28;20055;-82
2023/12/25 08:27:20;;;;;;;10.38;3.17;;;12.40;99.90;;;;;;5062530;28;20061;-82
2023/12/25 08:29:46;;;;;;;11.75;3.88;;;12.40;99.90;;;;;;5059069;28;20023;-83
2023/12/25 08:32:13;;;;;;;11.80;4.40;;;12.50;99.90;;;;;;5060690;28;20025;-83
2023/12/25 08:34:41;;;;;;;12.32;3.42;;;12.50;99.90;;;;;;5060263;28;20032;-83
2023/12/25 08:37:07;;;;;;;10.60;2.83;;;12.50;99.90;;;;;;5063861;28;20642;-83
2023/12/25 08:39:33;;;;;;;12.23;3.47;;;12.50;99.90;;;;;;5065627;28;20032;-83
2023/12/25 08:42:01;;;;;;;20.00;4.13;;;12.50;99.90;;;;;;5061438;28;20173;-83
2023/12/25 08:44:27;;;;;;;7.22;2.70;;;12.40;99.90;;;;;;5060705;28;20032;-83
2023/12/25 08:46:53;;;;;;;9.90;3.10;;;12.40;99.90;;;;;;5065260;28;20054;-82
2023/12/25 08:49:18;;;;;;;12.13;3.72;;;12.40;99.90;;;;;;5064829;28;20021;-82
2023/12/25 08:51:44;;;;;;;9.60;3.03;;;12.40;99.90;;;;;;5065551;28;20443;-82
2023/12/25 08:54:10;;;;;;;6.88;3.05;;;12.40;99.90;;;;;;5060712;28;21093;-82
2023/12/25 08:56:35;;;;;;;12.32;4.00;;;12.40;99.90;;;;;;5063272;28;20028;-82
2023/12/25 08:59:01;;;;;;;13.85;2.95;;;12.50;99.90;;;;;;5059638;28;20072;-82
2023/12/25 09:01:29;;;;;;;15.00;4.18;;;12.50;99.90;;;;;;5061960;28;20435;-83
2023/12/25 09:03:54;;;;;;;8.98;3.08;;;12.50;99.90;;;;;;5056519;28;20035;-83
2023/12/25 09:06:20;;;;;;;8.70;2.92;;;12.50;99.90;;;;;;5058062;28;20048;-82
2023/12/25 09:08:46;;;;;;;9.82;3.20;;;12.60;99.90;;;;;;5063102;28;20520;-82
2023/12/25 09:11:12;;;;;;;9.35;2.65;;;12.60;99.90;;;;;;5061782;28;20040;-83
2023/12/25 09:13:37;;;;;;;10.65;2.97;;;12.70;99.90;;;;;;5058915;28;20021;-83
2023/12/25 09:16:03;;;;;;;10.35;3.72;;;12.70;99.90;;;;;;5062713;28;20057;-83
2023/12/25 09:18:29;;;;;;;9.65;2.55;;;12.60;99.90;;;;;;5057950;28;20274;-83
2023/12/25 09:20:57;;;;;;;5.75;2.42;;;12.70;99.90;;;;;;5060541;28;20040;-83
2023/12/25 09:23:23;;;;;;;14.38;2.88;;;12.60;99.90;;;;;;5059473;28;20036;-82
2023/12/25 09:25:49;;;;;;;9.88;3.05;;;12.60;99.90;;;;;;5062730;28;20024;-84
2023/12/25 09:28:14;;;;;;;9.85;2.45;;;12.60;99.90;;;;;;5058733;28;20361;-82
2023/12/25 09:30:40;;;;;;;6.97;2.85;;;12.60;99.90;;;;;;5059167;28;20494;-82
2023/12/25 09:33:06;;;;;;;12.20;2.50;;;12.50;99.90;;;;;;5063142;28;20036;-82
2023/12/25 09:35:32;;;;;;;8.20;2.50;;;12.50;99.90;;;;;;5063589;28;20016;-82
2023/12/25 09:37:58;;;;;;;8.93;2.72;;;12.50;99.90;;;;;;5063094;28;20024;-83
2023/12/25 09:40:24;;;;;;;4.47;2.33;;;12.50;99.90;;;;;;5059304;28;20075;-82
2023/12/25 09:42:50;;;;;;;7.75;2.15;;;12.50;99.90;;;;;;5058429;28;20095;-83
2023/12/25 09:45:17;;;;;;;5.72;2.30;;;12.60;99.90;;;;;;5064417;28;20495;-83
2023/12/25 09:47:45;;;;;;;6.35;2.65;;;12.60;99.90;;;;;;5070052;28;20496;-83
2023/12/25 09:50:11;;;;;;;7.35;2.20;;;12.50;99.90;;;;;;5068849;28;20533;-81
2023/12/25 09:52:37;;;;;;;4.82;2.10;;;12.50;99.90;;;;;;5067523;28;20090;-82
2023/12/25 09:55:03;;;;;;;7.05;2.75;;;12.50;99.90;;;;;;5067797;28;20572;-83
2023/12/25 09:57:30;;;;;;;9.20;2.50;;;12.50;99.90;;;;;;5071821;28;20059;-83
2023/12/25 09:59:57;;;;;;;4.88;2.20;;;12.50;99.90;;;;;;5064627;28;20032;-82
2023/12/25 10:02:23;;;;;;;6.40;2.22;;;12.50;99.90;;;;;;5066309;28;20094;-83
2023/12/25 10:04:50;;;;;;;6.45;2.28;;;12.40;99.90;;;;;;5067489;28;20044;-82
2023/12/25 10:07:20;;;;;;;9.32;2.15;;;12.50;99.90;;;;;;5067681;28;20023;-82
2023/12/25 10:09:48;;;;;;;8.48;3.00;;;12.40;99.90;;;;;;5066080;28;20024;-83
2023/12/25 10:12:13;;;;;;;7.00;1.90;;;12.50;99.90;;;;;;5064546;28;20527;-82
2023/12/25 10:14:39;;;;;;;8.05;4.22;;;12.40;99.90;;;;;;5058863;28;20051;-82
2023/12/25 10:17:04;;;;;;;12.38;2.60;;;12.30;99.90;;;;;;5064590;28;20044;-83
2023/12/25 10:19:30;;;;;;;6.28;2.70;;;12.30;99.90;;;;;;5068753;28;20035;-82
2023/12/25 10:21:56;;;;;;;3.92;2.47;;;12.20;99.90;;;;;;5065657;28;20036;-82
2023/12/25 10:24:27;;;;;;;5.38;2.35;;;12.30;99.90;;;;;;5065692;28;20100;-82
2023/12/25 10:26:54;;;;;;;9.95;3.53;;;12.30;99.90;;;;;;5076341;28;20046;-83
2023/12/25 10:29:20;;;;;;;7.57;3.22;;;12.30;99.90;;;;;;5068879;28;20048;-83
2023/12/25 10:31:47;;;;;;;7.40;2.80;;;12.30;99.90;;;;;;5059407;28;20075;-83
2023/12/25 10:34:19;;;;;;;8.48;3.30;;;12.30;99.90;;;;;;5069344;28;20316;-83
2023/12/25 10:36:48;;;;;;;9.13;4.07;;;12.30;99.90;;;;;;5068715;28;20044;-83
2023/12/25 10:39:29;;;;;;;9.65;3.95;;;12.30;99.90;;;;;;5070123;28;20024;-83
2023/12/25 10:41:56;;;;;;;12.70;4.85;;;12.20;99.90;;;;;;5065858;28;20488;-83
2023/12/25 10:44:23;;;;;;;7.22;2.88;;;12.20;99.90;;;;;;5066944;28;20033;-83
2023/12/25 10:46:49;;;;;;;7.53;4.35;;;12.20;99.90;;;;;;5068524;28;20025;-83
2023/12/25 10:49:15;;;;;;;7.80;3.38;;;12.20;99.90;;;;;;5063165;28;20029;-83
2023/12/25 10:51:43;;;;;;;11.10;3.80;;;12.20;99.90;;;;;;5065053;28;20104;-82
2023/12/25 10:54:10;;;;;;;7.20;3.72;;;12.20;99.90;;;;;;5062240;28;20151;-83
2023/12/25 10:56:39;;;;;;;6.53;3.10;;;12.20;99.90;;;;;;5061981;28;20132;-83
2023/12/25 10:59:16;;;;;;;7.80;3.92;;;12.30;99.90;;;;;;5062433;28;20105;-83
2023/12/25 11:01:45;;;;;;;10.30;3.10;;;12.30;99.90;;;;;;5064541;28;20036;-85
2023/12/25 11:04:14;;;;;;;8.50;3.58;;;12.30;99.90;;;;;;5060885;28;20105;-85
2023/12/25 11:06:40;;;;;;;9.00;3.30;;;12.30;99.90;;;;;;5061750;28;20044;-85
2023/12/25 11:09:07;;;;;;;8.00;3.08;;;12.40;99.90;;;;;;5064926;28;20033;-85
2023/12/25 11:11:34;;;;;;;6.95;2.55;;;12.40;99.90;;;;;;5066922;28;20492;-84
2023/12/25 11:14:00;;;;;;;8.90;3.00;;;12.40;99.90;;;;;;5064250;28;20036;-85
2023/12/25 11:16:26;;;;;;;7.10;2.50;;;12.40;99.90;;;;;;5066544;28;20144;-85
2023/12/25 11:18:52;;;;;;;7.32;2.72;;;12.40;99.90;;;;;;5063606;28;20039;-85
2023/12/25 11:21:28;;;;;;;5.97;2.42;;;12.40;99.90;;;;;;5064436;28;20071;-84
2023/12/25 11:23:55;;;;;;;8.13;2.60;;;12.40;99.90;;;;;;5059771;28;20064;-84
2023/12/25 11:26:23;;;;;;;7.63;2.70;;;12.50;99.90;;;;;;5064496;28;20028;-84
2023/12/25 11:29:05;;;;;;;7.97;2.90;;;12.50;99.90;;;;;;5068140;28;20043;-84
2023/12/25 11:31:42;;;;;;;6.97;2.42;;;12.60;99.90;;;;;;5067502;28;20376;-83
2023/12/25 11:34:30;;;;;;;4.85;2.35;;;12.60;99.90;;;;;;5061614;28;20047;-84
2023/12/25 11:36:57;;;;;;;8.35;2.75;;;12.70;99.90;;;;;;5068806;28;20058;-84
2023/12/25 11:39:26;;;;;;;7.22;3.13;;;12.70;99.90;;;;;;5069567;28;20032;-83
2023/12/25 11:41:52;;;;;;;10.70;3.47;;;12.70;99.90;;;;;;5068532;28;20021;-83
2023/12/25 11:44:18;;;;;;;8.63;3.10;;;12.70;99.90;;;;;;5068592;28;20032;-83
2023/12/25 11:46:47;;;;;;;8.63;2.67;;;12.70;99.90;;;;;;5067731;28;20050;-82
2023/12/25 11:49:14;;;;;;;11.00;3.72;;;12.70;99.90;;;;;;5067148;28;20032;-84
2023/12/25 11:51:45;;;;;;;6.68;2.85;;;12.70;99.90;;;;;;5064149;28;20151;-83
2023/12/25 11:54:11;;;;;;;8.70;2.72;;;12.70;99.90;;;;;;5066449;28;20066;-84
2023/12/25 11:56:38;;;;;;;9.57;2.67;;;12.70;99.90;;;;;;5071543;28;20093;-83
2023/12/25 11:59:04;;;;;;;8.93;3.60;;;12.70;99.90;;;;;;5073065;28;20028;-82
2023/12/25 12:01:30;;;;;;;10.23;3.33;;;12.70;99.90;;;;;;5072613;28;20062;-82
2023/12/25 12:03:56;;;;;;;8.02;3.05;;;12.70;99.90;;;;;;5076139;28;20032;-83
2023/12/25 12:06:22;;;;;;;9.63;4.05;;;12.70;99.90;;;;;;5072172;28;20058;-83
2023/12/25 12:08:48;;;;;;;10.55;3.17;;;12.70;99.90;;;;;;5071301;28;20125;-82
2023/12/25 12:11:15;;;;;;;7.90;2.90;;;12.70;99.90;;;;;;5067856;28;20029;-84
2023/12/25 12:13:42;;;;;;;13.05;3.20;;;12.70;99.90;;;;;;5066204;28;20116;-83
2023/12/25 12:16:08;;;;;;;5.00;2.40;;;12.60;99.90;;;;;;5067018;28;20438;-82
2023/12/25 12:18:34;;;;;;;5.85;2.53;;;12.60;99.90;;;;;;5064881;28;20029;-82
2023/12/25 12:21:01;;;;;;;8.88;2.70;;;12.50;99.90;;;;;;5063843;28;20366;-83
2023/12/25 12:23:27;;;;;;;4.70;2.65;;;12.50;99.90;;;;;;5063973;28;20131;-83
2023/12/25 12:25:53;;;;;;;5.85;2.58;;;12.40;99.90;;;;;;5064623;28;20448;-83
2023/12/25 12:28:19;;;;;;;8.50;2.20;;;12.40;99.90;;;;;;5064443;28;20036;-83
2023/12/25 12:30:44;;;;;;;6.90;2.30;;;12.40;99.90;;;;;;5064235;28;20459;-83
2023/12/25 12:33:12;;;;;;;7.30;2.78;;;12.40;99.90;;;;;;5066448;28;20056;-83
2023/12/25 12:35:39;;;;;;;6.38;2.25;;;12.40;99.90;;;;;;5063169;28;20056;-83
2023/12/25 12:38:05;;;;;;;7.38;2.75;;;12.50;99.90;;;;;;5069590;28;20024;-83
2023/12/25 12:40:31;;;;;;;6.15;2.38;;;12.50;99.90;;;;;;5065439;28;20094;-83